sensor_id;sensor_type;location;lat;lon;timestamp;temperature;humidity
71304;DHT22;59091;47.446;19.148;2023-06-10T00:00:53;19.82;81.09
71304;DHT22;59091;47.446;19.148;2023-06-10T00:03:19;19.81;81.08
71304;DHT22;59091;47.446;19.148;2023-06-10T00:05:44;19.78;80.92
71304;DHT22;59091;47.446;19.148;2023-06-10T00:08:10;19.81;80.85
71304;DHT22;59091;47.446;19.148;2023-06-10T00:10:37;19.82;80.80
71304;DHT22;59091;47.446;19.148;2023-06-10T00:13:07;19.78;80.76
71304;DHT22;59091;47.446;19.148;2023-06-10T00:15:36;19.77;80.75
71304;DHT22;59091;47.446;19.148;2023-06-10T00:18:02;19.78;80.74
71304;DHT22;59091;47.446;19.148;2023-06-10T00:20:29;19.75;80.82
71304;DHT22;59091;47.446;19.148;2023-06-10T00:22:55;19.72;80.89
71304;DHT22;59091;47.446;19.148;2023-06-10T00:25:22;19.77;81.03
71304;DHT22;59091;47.446;19.148;2023-06-10T00:27:48;19.78;81.12
71304;DHT22;59091;47.446;19.148;2023-06-10T00:30:14;19.78;81.18
71304;DHT22;59091;47.446;19.148;2023-06-10T00:32:39;19.79;81.26
71304;DHT22;59091;47.446;19.148;2023-06-10T00:35:05;19.82;81.17
71304;DHT22;59091;47.446;19.148;2023-06-10T00:37:32;19.83;81.18
71304;DHT22;59091;47.446;19.148;2023-06-10T00:39:57;19.83;81.13
71304;DHT22;59091;47.446;19.148;2023-06-10T00:42:23;19.83;81.06
71304;DHT22;59091;47.446;19.148;2023-06-10T00:44:54;19.85;80.90
71304;DHT22;59091;47.446;19.148;2023-06-10T00:47:20;19.85;80.88
71304;DHT22;59091;47.446;19.148;2023-06-10T00:49:46;19.83;80.87
71304;DHT22;59091;47.446;19.148;2023-06-10T00:52:14;19.81;80.79
71304;DHT22;59091;47.446;19.148;2023-06-10T00:54:39;19.85;80.87
71304;DHT22;59091;47.446;19.148;2023-06-10T00:57:05;19.83;80.88
71304;DHT22;59091;47.446;19.148;2023-06-10T00:59:31;19.85;80.78
71304;DHT22;59091;47.446;19.148;2023-06-10T01:01:57;19.83;80.70
71304;DHT22;59091;47.446;19.148;2023-06-10T01:04:23;19.83;80.64
71304;DHT22;59091;47.446;19.148;2023-06-10T01:06:54;19.82;80.43
71304;DHT22;59091;47.446;19.148;2023-06-10T01:12:12;19.71;80.40
71304;DHT22;59091;47.446;19.148;2023-06-10T01:14:42;19.74;80.41
71304;DHT22;59091;47.446;19.148;2023-06-10T01:17:11;19.72;80.27
71304;DHT22;59091;47.446;19.148;2023-06-10T01:19:37;19.69;80.22
71304;DHT22;59091;47.446;19.148;2023-06-10T01:22:03;19.67;79.98
71304;DHT22;59091;47.446;19.148;2023-06-10T01:24:29;19.59;80.01
71304;DHT22;59091;47.446;19.148;2023-06-10T01:27:00;19.61;80.08
71304;DHT22;59091;47.446;19.148;2023-06-10T01:29:32;19.61;80.24
71304;DHT22;59091;47.446;19.148;2023-06-10T01:32:08;19.55;80.36
71304;DHT22;59091;47.446;19.148;2023-06-10T01:34:37;19.55;80.52
71304;DHT22;59091;47.446;19.148;2023-06-10T01:37:04;19.54;80.41
71304;DHT22;59091;47.446;19.148;2023-06-10T01:39:30;19.54;80.47
71304;DHT22;59091;47.446;19.148;2023-06-10T01:41:57;19.57;80.55
71304;DHT22;59091;47.446;19.148;2023-06-10T01:44:23;19.55;80.65
71304;DHT22;59091;47.446;19.148;2023-06-10T01:46:49;19.55;80.61
71304;DHT22;59091;47.446;19.148;2023-06-10T01:49:15;19.50;80.68
71304;DHT22;59091;47.446;19.148;2023-06-10T01:51:41;19.51;80.73
71304;DHT22;59091;47.446;19.148;2023-06-10T01:54:06;19.48;80.78
71304;DHT22;59091;47.446;19.148;2023-06-10T01:56:32;19.48;80.81
71304;DHT22;59091;47.446;19.148;2023-06-10T01:58:58;19.46;80.90
71304;DHT22;59091;47.446;19.148;2023-06-10T02:01:28;19.48;80.70
71304;DHT22;59091;47.446;19.148;2023-06-10T02:03:54;19.46;80.74
71304;DHT22;59091;47.446;19.148;2023-06-10T02:06:19;19.46;80.69
71304;DHT22;59091;47.446;19.148;2023-06-10T02:08:45;19.44;80.54
71304;DHT22;59091;47.446;19.148;2023-06-10T02:11:10;19.41;80.53
71304;DHT22;59091;47.446;19.148;2023-06-10T02:13:38;19.44;80.54
71304;DHT22;59091;47.446;19.148;2023-06-10T02:16:03;19.40;80.58
71304;DHT22;59091;47.446;19.148;2023-06-10T02:18:29;19.38;80.53
71304;DHT22;59091;47.446;19.148;2023-06-10T02:20:54;19.34;80.42
71304;DHT22;59091;47.446;19.148;2023-06-10T02:23:20;19.10;81.13
71304;DHT22;59091;47.446;19.148;2023-06-10T02:25:45;19.20;81.10
71304;DHT22;59091;47.446;19.148;2023-06-10T02:28:12;19.18;80.98
71304;DHT22;59091;47.446;19.148;2023-06-10T02:30:41;19.21;80.82
71304;DHT22;59091;47.446;19.148;2023-06-10T02:33:07;19.23;80.69
71304;DHT22;59091;47.446;19.148;2023-06-10T02:35:37;19.20;80.74
71304;DHT22;59091;47.446;19.148;2023-06-10T02:38:03;19.03;81.05
71304;DHT22;59091;47.446;19.148;2023-06-10T02:40:29;18.97;81.21
71304;DHT22;59091;47.446;19.148;2023-06-10T02:42:54;19.07;81.39
71304;DHT22;59091;47.446;19.148;2023-06-10T02:45:20;18.96;81.51
71304;DHT22;59091;47.446;19.148;2023-06-10T02:47:45;18.77;82.21
71304;DHT22;59091;47.446;19.148;2023-06-10T02:50:11;18.65;82.86
71304;DHT22;59091;47.446;19.148;2023-06-10T02:52:37;18.80;82.34
71304;DHT22;59091;47.446;19.148;2023-06-10T02:55:03;18.82;82.23
71304;DHT22;59091;47.446;19.148;2023-06-10T02:57:28;18.83;82.27
71304;DHT22;59091;47.446;19.148;2023-06-10T02:59:53;18.95;82.14
71304;DHT22;59091;47.446;19.148;2023-06-10T03:02:19;18.99;82.00
71304;DHT22;59091;47.446;19.148;2023-06-10T03:04:45;19.04;81.86
71304;DHT22;59091;47.446;19.148;2023-06-10T03:07:10;19.13;81.82
71304;DHT22;59091;47.446;19.148;2023-06-10T03:09:36;19.20;81.60
71304;DHT22;59091;47.446;19.148;2023-06-10T03:12:02;19.24;81.47
71304;DHT22;59091;47.446;19.148;2023-06-10T03:14:27;19.30;81.22
71304;DHT22;59091;47.446;19.148;2023-06-10T03:16:53;19.32;81.15
71304;DHT22;59091;47.446;19.148;2023-06-10T03:19:18;19.41;81.10
71304;DHT22;59091;47.446;19.148;2023-06-10T03:21:50;19.47;80.96
71304;DHT22;59091;47.446;19.148;2023-06-10T03:24:20;19.51;80.83
71304;DHT22;59091;47.446;19.148;2023-06-10T03:26:45;19.62;80.64
71304;DHT22;59091;47.446;19.148;2023-06-10T03:29:11;19.67;80.44
71304;DHT22;59091;47.446;19.148;2023-06-10T03:31:36;19.69;80.30
71304;DHT22;59091;47.446;19.148;2023-06-10T03:34:02;19.74;80.12
71304;DHT22;59091;47.446;19.148;2023-06-10T03:36:27;19.58;80.36
71304;DHT22;59091;47.446;19.148;2023-06-10T03:38:54;19.48;80.59
71304;DHT22;59091;47.446;19.148;2023-06-10T03:41:22;19.44;80.92
71304;DHT22;59091;47.446;19.148;2023-06-10T03:43:48;19.43;81.04
71304;DHT22;59091;47.446;19.148;2023-06-10T03:46:13;19.21;81.86
71304;DHT22;59091;47.446;19.148;2023-06-10T03:48:39;19.32;81.62
71304;DHT22;59091;47.446;19.148;2023-06-10T03:51:04;19.31;81.38
71304;DHT22;59091;47.446;19.148;2023-06-10T03:53:30;19.46;81.20
71304;DHT22;59091;47.446;19.148;2023-06-10T03:55:56;19.62;80.84
71304;DHT22;59091;47.446;19.148;2023-06-10T03:58:22;19.74;80.68
71304;DHT22;59091;47.446;19.148;2023-06-10T04:00:48;19.61;80.77
71304;DHT22;59091;47.446;19.148;2023-06-10T04:03:14;19.44;81.43
71304;DHT22;59091;47.446;19.148;2023-06-10T04:05:40;19.59;81.19
71304;DHT22;59091;47.446;19.148;2023-06-10T04:08:07;19.65;80.59
71304;DHT22;59091;47.446;19.148;2023-06-10T04:10:33;19.43;81.31
71304;DHT22;59091;47.446;19.148;2023-06-10T04:12:58;19.48;81.42
71304;DHT22;59091;47.446;19.148;2023-06-10T04:15:25;19.46;81.66
71304;DHT22;59091;47.446;19.148;2023-06-10T04:17:50;19.18;82.26
71304;DHT22;59091;47.446;19.148;2023-06-10T04:20:16;19.27;81.47
71304;DHT22;59091;47.446;19.148;2023-06-10T04:22:41;19.28;81.39
71304;DHT22;59091;47.446;19.148;2023-06-10T04:25:09;19.48;80.70
71304;DHT22;59091;47.446;19.148;2023-06-10T04:27:34;19.57;80.34
71304;DHT22;59091;47.446;19.148;2023-06-10T04:30:00;19.44;80.84
71304;DHT22;59091;47.446;19.148;2023-06-10T04:32:25;19.69;80.20
71304;DHT22;59091;47.446;19.148;2023-06-10T04:34:51;19.75;79.80
71304;DHT22;59091;47.446;19.148;2023-06-10T04:37:17;19.96;79.12
71304;DHT22;59091;47.446;19.148;2023-06-10T04:39:43;19.77;79.15
71304;DHT22;59091;47.446;19.148;2023-06-10T04:42:08;19.77;79.08
71304;DHT22;59091;47.446;19.148;2023-06-10T04:44:34;19.81;79.24
71304;DHT22;59091;47.446;19.148;2023-06-10T04:46:59;19.58;79.55
71304;DHT22;59091;47.446;19.148;2023-06-10T04:49:25;19.58;79.34
71304;DHT22;59091;47.446;19.148;2023-06-10T04:51:51;19.64;79.26
71304;DHT22;59091;47.446;19.148;2023-06-10T04:54:16;19.77;78.79
71304;DHT22;59091;47.446;19.148;2023-06-10T04:56:42;19.81;78.93
71304;DHT22;59091;47.446;19.148;2023-06-10T04:59:07;20.06;78.17
71304;DHT22;59091;47.446;19.148;2023-06-10T05:01:33;20.25;77.71
71304;DHT22;59091;47.446;19.148;2023-06-10T05:03:58;20.43;76.97
71304;DHT22;59091;47.446;19.148;2023-06-10T05:06:23;20.51;76.39
71304;DHT22;59091;47.446;19.148;2023-06-10T05:08:49;20.64;75.79
71304;DHT22;59091;47.446;19.148;2023-06-10T05:11:14;20.91;74.96
71304;DHT22;59091;47.446;19.148;2023-06-10T05:13:41;20.83;74.64
71304;DHT22;59091;47.446;19.148;2023-06-10T05:16:08;20.94;74.46
71304;DHT22;59091;47.446;19.148;2023-06-10T05:18:34;21.02;74.28
71304;DHT22;59091;47.446;19.148;2023-06-10T05:21:01;21.02;73.89
71304;DHT22;59091;47.446;19.148;2023-06-10T05:23:26;21.04;74.03
71304;DHT22;59091;47.446;19.148;2023-06-10T05:25:52;21.07;73.53
71304;DHT22;59091;47.446;19.148;2023-06-10T05:28:17;21.07;73.26
71304;DHT22;59091;47.446;19.148;2023-06-10T05:30:43;21.17;73.15
71304;DHT22;59091;47.446;19.148;2023-06-10T05:33:09;21.21;72.88
71304;DHT22;59091;47.446;19.148;2023-06-10T05:35:34;21.25;72.67
71304;DHT22;59091;47.446;19.148;2023-06-10T05:37:59;21.35;72.57
71304;DHT22;59091;47.446;19.148;2023-06-10T05:40:25;21.38;72.16
71304;DHT22;59091;47.446;19.148;2023-06-10T05:42:50;21.11;72.46
71304;DHT22;59091;47.446;19.148;2023-06-10T05:45:16;21.39;72.42
71304;DHT22;59091;47.446;19.148;2023-06-10T05:47:41;21.58;71.87
71304;DHT22;59091;47.446;19.148;2023-06-10T05:50:07;21.53;71.44
71304;DHT22;59091;47.446;19.148;2023-06-10T05:52:37;21.51;71.29
71304;DHT22;59091;47.446;19.148;2023-06-10T05:55:05;21.83;70.88
71304;DHT22;59091;47.446;19.148;2023-06-10T05:57:31;22.03;70.91
71304;DHT22;59091;47.446;19.148;2023-06-10T05:59:56;22.47;69.30
71304;DHT22;59091;47.446;19.148;2023-06-10T06:02:22;22.17;69.42
71304;DHT22;59091;47.446;19.148;2023-06-10T06:04:48;22.33;69.12
71304;DHT22;59091;47.446;19.148;2023-06-10T06:07:13;22.30;69.26
71304;DHT22;59091;47.446;19.148;2023-06-10T06:09:39;21.89;69.88
71304;DHT22;59091;47.446;19.148;2023-06-10T06:12:04;22.21;69.48
71304;DHT22;59091;47.446;19.148;2023-06-10T06:14:31;22.36;69.34
71304;DHT22;59091;47.446;19.148;2023-06-10T06:17:00;22.29;69.49
71304;DHT22;59091;47.446;19.148;2023-06-10T06:19:25;22.41;69.45
71304;DHT22;59091;47.446;19.148;2023-06-10T06:21:50;22.20;69.78
71304;DHT22;59091;47.446;19.148;2023-06-10T06:24:16;22.30;69.60
71304;DHT22;59091;47.446;19.148;2023-06-10T06:26:42;21.69;71.66
71304;DHT22;59091;47.446;19.148;2023-06-10T06:29:07;21.89;71.12
71304;DHT22;59091;47.446;19.148;2023-06-10T06:31:33;22.16;70.58
71304;DHT22;59091;47.446;19.148;2023-06-10T06:33:58;22.36;69.97
71304;DHT22;59091;47.446;19.148;2023-06-10T06:36:23;22.43;70.05
71304;DHT22;59091;47.446;19.148;2023-06-10T06:38:49;22.54;69.77
71304;DHT22;59091;47.446;19.148;2023-06-10T06:41:14;22.31;69.54
71304;DHT22;59091;47.446;19.148;2023-06-10T06:43:40;22.61;69.15
71304;DHT22;59091;47.446;19.148;2023-06-10T06:46:05;22.79;68.94
71304;DHT22;59091;47.446;19.148;2023-06-10T06:48:31;22.69;68.84
71304;DHT22;59091;47.446;19.148;2023-06-10T06:50:56;22.81;68.55
71304;DHT22;59091;47.446;19.148;2023-06-10T06:53:23;22.98;68.00
71304;DHT22;59091;47.446;19.148;2023-06-10T06:55:48;23.23;67.28
71304;DHT22;59091;47.446;19.148;2023-06-10T06:58:13;23.18;67.50
71304;DHT22;59091;47.446;19.148;2023-06-10T07:00:39;22.90;67.68
71304;DHT22;59091;47.446;19.148;2023-06-10T07:03:04;23.08;67.63
71304;DHT22;59091;47.446;19.148;2023-06-10T07:05:30;23.24;66.99
71304;DHT22;59091;47.446;19.148;2023-06-10T07:07:56;23.49;66.62
71304;DHT22;59091;47.446;19.148;2023-06-10T07:10:22;23.64;66.18
71304;DHT22;59091;47.446;19.148;2023-06-10T07:12:48;23.84;65.91
71304;DHT22;59091;47.446;19.148;2023-06-10T07:15:13;24.15;64.66
71304;DHT22;59091;47.446;19.148;2023-06-10T07:17:39;24.47;63.57
71304;DHT22;59091;47.446;19.148;2023-06-10T07:20:05;24.48;63.63
71304;DHT22;59091;47.446;19.148;2023-06-10T07:22:30;24.55;63.04
71304;DHT22;59091;47.446;19.148;2023-06-10T07:24:57;24.54;62.54
71304;DHT22;59091;47.446;19.148;2023-06-10T07:27:22;24.51;62.72
71304;DHT22;59091;47.446;19.148;2023-06-10T07:29:48;24.80;61.97
71304;DHT22;59091;47.446;19.148;2023-06-10T07:32:13;24.93;62.23
71304;DHT22;59091;47.446;19.148;2023-06-10T07:34:38;25.30;61.65
71304;DHT22;59091;47.446;19.148;2023-06-10T07:37:04;25.06;59.87
71304;DHT22;59091;47.446;19.148;2023-06-10T07:39:30;25.24;60.26
71304;DHT22;59091;47.446;19.148;2023-06-10T07:41:55;25.28;60.63
71304;DHT22;59091;47.446;19.148;2023-06-10T07:44:22;25.51;59.35
71304;DHT22;59091;47.446;19.148;2023-06-10T07:46:48;25.61;58.82
71304;DHT22;59091;47.446;19.148;2023-06-10T07:49:13;25.78;58.42
71304;DHT22;59091;47.446;19.148;2023-06-10T07:51:39;25.64;58.55
71304;DHT22;59091;47.446;19.148;2023-06-10T07:54:04;25.86;57.74
71304;DHT22;59091;47.446;19.148;2023-06-10T07:56:30;26.14;57.58
71304;DHT22;59091;47.446;19.148;2023-06-10T07:58:55;25.88;57.76
71304;DHT22;59091;47.446;19.148;2023-06-10T08:01:22;26.25;57.04
71304;DHT22;59091;47.446;19.148;2023-06-10T08:03:48;25.91;57.59
71304;DHT22;59091;47.446;19.148;2023-06-10T08:06:13;26.39;56.90
71304;DHT22;59091;47.446;19.148;2023-06-10T08:08:39;27.12;55.12
71304;DHT22;59091;47.446;19.148;2023-06-10T08:11:08;27.31;54.75
71304;DHT22;59091;47.446;19.148;2023-06-10T08:13:33;27.01;54.52
71304;DHT22;59091;47.446;19.148;2023-06-10T08:15:59;27.49;53.26
71304;DHT22;59091;47.446;19.148;2023-06-10T08:18:24;28.03;52.63
71304;DHT22;59091;47.446;19.148;2023-06-10T08:20:49;28.79;50.17
71304;DHT22;59091;47.446;19.148;2023-06-10T08:23:15;28.91;48.97
71304;DHT22;59091;47.446;19.148;2023-06-10T08:25:40;28.92;49.45
71304;DHT22;59091;47.446;19.148;2023-06-10T08:28:06;28.39;49.60
71304;DHT22;59091;47.446;19.148;2023-06-10T08:30:31;28.20;50.23
71304;DHT22;59091;47.446;19.148;2023-06-10T08:32:57;28.05;50.52
71304;DHT22;59091;47.446;19.148;2023-06-10T08:35:22;27.69;51.88
71304;DHT22;59091;47.446;19.148;2023-06-10T08:37:47;27.68;51.99
71304;DHT22;59091;47.446;19.148;2023-06-10T08:40:13;27.18;52.72
71304;DHT22;59091;47.446;19.148;2023-06-10T08:45:30;26.82;54.22
71304;DHT22;59091;47.446;19.148;2023-06-10T08:48:02;26.49;54.75
71304;DHT22;59091;47.446;19.148;2023-06-10T08:50:35;26.19;55.89
71304;DHT22;59091;47.446;19.148;2023-06-10T08:53:06;25.94;56.53
71304;DHT22;59091;47.446;19.148;2023-06-10T08:55:36;25.80;56.97
71304;DHT22;59091;47.446;19.148;2023-06-10T08:58:03;25.60;58.27
71304;DHT22;59091;47.446;19.148;2023-06-10T09:00:30;24.96;58.85
71304;DHT22;59091;47.446;19.148;2023-06-10T09:02:56;25.06;59.33
71304;DHT22;59091;47.446;19.148;2023-06-10T09:05:22;25.27;58.67
71304;DHT22;59091;47.446;19.148;2023-06-10T09:07:48;25.40;58.07
71304;DHT22;59091;47.446;19.148;2023-06-10T09:10:14;25.53;57.29
71304;DHT22;59091;47.446;19.148;2023-06-10T09:12:40;25.70;56.80
71304;DHT22;59091;47.446;19.148;2023-06-10T09:15:06;25.70;56.99
71304;DHT22;59091;47.446;19.148;2023-06-10T09:17:32;25.55;56.48
71304;DHT22;59091;47.446;19.148;2023-06-10T09:20:00;25.51;56.91
71304;DHT22;59091;47.446;19.148;2023-06-10T09:22:27;25.41;57.36
71304;DHT22;59091;47.446;19.148;2023-06-10T09:25:13;25.45;57.72
71304;DHT22;59091;47.446;19.148;2023-06-10T09:27:52;25.50;58.02
71304;DHT22;59091;47.446;19.148;2023-06-10T09:30:25;25.57;58.78
71304;DHT22;59091;47.446;19.148;2023-06-10T09:32:58;25.80;57.99
71304;DHT22;59091;47.446;19.148;2023-06-10T09:35:24;26.01;57.91
71304;DHT22;59091;47.446;19.148;2023-06-10T09:37:55;26.37;56.19
71304;DHT22;59091;47.446;19.148;2023-06-10T09:40:20;26.93;55.20
71304;DHT22;59091;47.446;19.148;2023-06-10T09:42:46;27.10;54.20
71304;DHT22;59091;47.446;19.148;2023-06-10T09:45:20;27.49;53.96
71304;DHT22;59091;47.446;19.148;2023-06-10T09:47:46;27.66;52.14
71304;DHT22;59091;47.446;19.148;2023-06-10T09:50:12;27.82;51.48
71304;DHT22;59091;47.446;19.148;2023-06-10T09:52:37;27.86;50.65
71304;DHT22;59091;47.446;19.148;2023-06-10T09:55:04;28.03;51.28
71304;DHT22;59091;47.446;19.148;2023-06-10T09:57:33;28.17;50.85
71304;DHT22;59091;47.446;19.148;2023-06-10T09:59:59;27.97;50.04
71304;DHT22;59091;47.446;19.148;2023-06-10T10:02:24;27.97;48.79
71304;DHT22;59091;47.446;19.148;2023-06-10T10:04:50;27.97;49.80
71304;DHT22;59091;47.446;19.148;2023-06-10T10:07:16;27.76;50.38
71304;DHT22;59091;47.446;19.148;2023-06-10T10:09:42;27.68;51.03
71304;DHT22;59091;47.446;19.148;2023-06-10T10:12:13;27.79;51.06
71304;DHT22;59091;47.446;19.148;2023-06-10T10:14:48;27.75;51.60
71304;DHT22;59091;47.446;19.148;2023-06-10T10:17:15;27.66;52.39
71304;DHT22;59091;47.446;19.148;2023-06-10T10:20:04;27.44;52.38
71304;DHT22;59091;47.446;19.148;2023-06-10T10:22:39;27.52;52.38
71304;DHT22;59091;47.446;19.148;2023-06-10T10:25:10;27.55;52.70
71304;DHT22;59091;47.446;19.148;2023-06-10T10:27:43;27.68;52.26
71304;DHT22;59091;47.446;19.148;2023-06-10T10:30:11;27.72;51.10
71304;DHT22;59091;47.446;19.148;2023-06-10T10:33:17;27.55;51.07
71304;DHT22;59091;47.446;19.148;2023-06-10T10:35:44;27.58;51.94
71304;DHT22;59091;47.446;19.148;2023-06-10T10:38:11;27.59;52.08
71304;DHT22;59091;47.446;19.148;2023-06-10T10:40:37;27.55;52.38
71304;DHT22;59091;47.446;19.148;2023-06-10T10:43:03;27.42;51.24
71304;DHT22;59091;47.446;19.148;2023-06-10T10:45:30;27.20;52.12
71304;DHT22;59091;47.446;19.148;2023-06-10T10:47:55;26.77;52.90
71304;DHT22;59091;47.446;19.148;2023-06-10T10:50:22;26.75;53.37
71304;DHT22;59091;47.446;19.148;2023-06-10T10:52:58;26.53;53.63
71304;DHT22;59091;47.446;19.148;2023-06-10T10:55:25;26.35;54.56
71304;DHT22;59091;47.446;19.148;2023-06-10T10:58:01;26.08;56.27
71304;DHT22;59091;47.446;19.148;2023-06-10T11:00:32;25.71;57.14
71304;DHT22;59091;47.446;19.148;2023-06-10T11:03:05;26.01;56.15
71304;DHT22;59091;47.446;19.148;2023-06-10T11:05:41;26.15;56.64
71304;DHT22;59091;47.446;19.148;2023-06-10T11:08:10;26.40;55.80
71304;DHT22;59091;47.446;19.148;2023-06-10T11:10:40;26.55;55.51
71304;DHT22;59091;47.446;19.148;2023-06-10T11:13:12;26.77;55.49
71304;DHT22;59091;47.446;19.148;2023-06-10T11:15:43;26.79;53.28
71304;DHT22;59091;47.446;19.148;2023-06-10T11:23:10;27.55;51.18
71304;DHT22;59091;47.446;19.148;2023-06-10T11:25:39;27.89;50.12
71304;DHT22;59091;47.446;19.148;2023-06-10T11:28:19;28.12;49.73
71304;DHT22;59091;47.446;19.148;2023-06-10T11:30:45;28.12;48.99
71304;DHT22;59091;47.446;19.148;2023-06-10T11:33:17;28.36;49.04
71304;DHT22;59091;47.446;19.148;2023-06-10T11:35:43;27.85;47.56
71304;DHT22;59091;47.446;19.148;2023-06-10T11:38:09;27.90;48.08
71304;DHT22;59091;47.446;19.148;2023-06-10T11:40:36;28.27;47.04
71304;DHT22;59091;47.446;19.148;2023-06-10T11:43:03;28.30;46.98
71304;DHT22;59091;47.446;19.148;2023-06-10T11:45:29;28.06;48.96
71304;DHT22;59091;47.446;19.148;2023-06-10T11:48:00;28.37;47.19
71304;DHT22;59091;47.446;19.148;2023-06-10T11:50:32;28.74;47.21
71304;DHT22;59091;47.446;19.148;2023-06-10T11:52:58;29.01;46.45
71304;DHT22;59091;47.446;19.148;2023-06-10T11:55:46;28.65;46.80
71304;DHT22;59091;47.446;19.148;2023-06-10T11:58:15;28.23;47.88
71304;DHT22;59091;47.446;19.148;2023-06-10T12:00:51;27.92;48.87
71304;DHT22;59091;47.446;19.148;2023-06-10T12:03:19;27.69;49.21
71304;DHT22;59091;47.446;19.148;2023-06-10T12:05:58;27.81;50.12
71304;DHT22;59091;47.446;19.148;2023-06-10T12:08:24;27.89;49.19
71304;DHT22;59091;47.446;19.148;2023-06-10T12:10:50;28.17;48.09
71304;DHT22;59091;47.446;19.148;2023-06-10T12:13:16;28.14;49.00
71304;DHT22;59091;47.446;19.148;2023-06-10T12:15:45;28.02;48.68
71304;DHT22;59091;47.446;19.148;2023-06-10T12:18:18;27.90;47.61
71304;DHT22;59091;47.446;19.148;2023-06-10T12:20:44;28.00;47.76
71304;DHT22;59091;47.446;19.148;2023-06-10T12:23:10;28.41;47.04
71304;DHT22;59091;47.446;19.148;2023-06-10T12:25:36;28.60;46.16
71304;DHT22;59091;47.446;19.148;2023-06-10T12:28:05;28.79;45.54
71304;DHT22;59091;47.446;19.148;2023-06-10T12:30:34;28.95;45.19
71304;DHT22;59091;47.446;19.148;2023-06-10T12:32:59;28.99;45.18
71304;DHT22;59091;47.446;19.148;2023-06-10T12:35:26;28.74;46.29
71304;DHT22;59091;47.446;19.148;2023-06-10T12:38:00;28.54;46.67
71304;DHT22;59091;47.446;19.148;2023-06-10T12:40:38;28.65;46.30
71304;DHT22;59091;47.446;19.148;2023-06-10T12:43:06;28.75;47.25
71304;DHT22;59091;47.446;19.148;2023-06-10T12:45:35;28.64;46.85
71304;DHT22;59091;47.446;19.148;2023-06-10T12:48:12;28.09;47.05
71304;DHT22;59091;47.446;19.148;2023-06-10T12:50:39;28.48;47.10
71304;DHT22;59091;47.446;19.148;2023-06-10T12:53:06;28.56;46.80
71304;DHT22;59091;47.446;19.148;2023-06-10T12:55:32;28.90;45.74
71304;DHT22;59091;47.446;19.148;2023-06-10T12:57:59;29.56;45.53
71304;DHT22;59091;47.446;19.148;2023-06-10T13:00:25;29.18;44.05
71304;DHT22;59091;47.446;19.148;2023-06-10T13:02:52;29.23;44.90
71304;DHT22;59091;47.446;19.148;2023-06-10T13:05:18;29.01;45.23
71304;DHT22;59091;47.446;19.148;2023-06-10T13:07:45;28.82;45.10
71304;DHT22;59091;47.446;19.148;2023-06-10T13:10:11;28.74;45.42
71304;DHT22;59091;47.446;19.148;2023-06-10T13:12:38;28.67;45.55
71304;DHT22;59091;47.446;19.148;2023-06-10T13:15:04;28.39;45.81
71304;DHT22;59091;47.446;19.148;2023-06-10T13:17:30;28.05;46.76
71304;DHT22;59091;47.446;19.148;2023-06-10T13:19:55;27.84;47.57
71304;DHT22;59091;47.446;19.148;2023-06-10T13:22:21;28.16;47.87
71304;DHT22;59091;47.446;19.148;2023-06-10T13:24:47;27.99;47.94
71304;DHT22;59091;47.446;19.148;2023-06-10T13:27:13;27.59;48.01
71304;DHT22;59091;47.446;19.148;2023-06-10T13:29:39;27.58;46.57
71304;DHT22;59091;47.446;19.148;2023-06-10T13:32:05;27.93;46.13
71304;DHT22;59091;47.446;19.148;2023-06-10T13:34:31;28.07;46.19
71304;DHT22;59091;47.446;19.148;2023-06-10T13:36:57;28.10;46.19
71304;DHT22;59091;47.446;19.148;2023-06-10T13:39:22;28.07;47.56
71304;DHT22;59091;47.446;19.148;2023-06-10T13:41:48;28.48;47.22
71304;DHT22;59091;47.446;19.148;2023-06-10T13:44:14;27.95;47.59
71304;DHT22;59091;47.446;19.148;2023-06-10T13:46:39;27.76;49.30
71304;DHT22;59091;47.446;19.148;2023-06-10T13:49:05;27.47;50.23
71304;DHT22;59091;47.446;19.148;2023-06-10T13:51:30;27.15;51.11
71304;DHT22;59091;47.446;19.148;2023-06-10T13:53:56;26.76;51.63
71304;DHT22;59091;47.446;19.148;2023-06-10T13:56:21;26.50;49.67
71304;DHT22;59091;47.446;19.148;2023-06-10T13:58:46;26.52;50.38
71304;DHT22;59091;47.446;19.148;2023-06-10T14:01:12;26.32;50.49
71304;DHT22;59091;47.446;19.148;2023-06-10T14:03:37;26.49;50.49
71304;DHT22;59091;47.446;19.148;2023-06-10T14:06:03;26.26;50.52
71304;DHT22;59091;47.446;19.148;2023-06-10T14:08:29;26.24;51.47
71304;DHT22;59091;47.446;19.148;2023-06-10T14:10:55;26.33;52.31
71304;DHT22;59091;47.446;19.148;2023-06-10T14:13:20;26.22;54.24
71304;DHT22;59091;47.446;19.148;2023-06-10T14:15:45;26.09;55.00
71304;DHT22;59091;47.446;19.148;2023-06-10T14:18:11;26.01;55.52
71304;DHT22;59091;47.446;19.148;2023-06-10T14:20:37;25.92;56.00
71304;DHT22;59091;47.446;19.148;2023-06-10T14:23:02;25.92;57.01
71304;DHT22;59091;47.446;19.148;2023-06-10T14:25:28;25.82;57.76
71304;DHT22;59091;47.446;19.148;2023-06-10T14:27:53;25.71;58.27
71304;DHT22;59091;47.446;19.148;2023-06-10T14:30:19;25.54;58.98
71304;DHT22;59091;47.446;19.148;2023-06-10T14:32:45;25.53;58.86
71304;DHT22;59091;47.446;19.148;2023-06-10T14:35:10;25.34;59.54
71304;DHT22;59091;47.446;19.148;2023-06-10T14:37:36;25.67;58.49
71304;DHT22;59091;47.446;19.148;2023-06-10T14:40:03;25.81;59.09
71304;DHT22;59091;47.446;19.148;2023-06-10T14:42:28;26.01;58.48
71304;DHT22;59091;47.446;19.148;2023-06-10T14:44:54;25.84;58.83
71304;DHT22;59091;47.446;19.148;2023-06-10T14:47:19;26.01;58.36
71304;DHT22;59091;47.446;19.148;2023-06-10T14:49:45;25.82;58.87
71304;DHT22;59091;47.446;19.148;2023-06-10T14:52:10;25.94;58.90
71304;DHT22;59091;47.446;19.148;2023-06-10T14:54:36;26.04;59.06
71304;DHT22;59091;47.446;19.148;2023-06-10T14:57:01;26.31;58.39
71304;DHT22;59091;47.446;19.148;2023-06-10T14:59:27;26.32;57.42
71304;DHT22;59091;47.446;19.148;2023-06-10T15:01:52;26.40;57.73
71304;DHT22;59091;47.446;19.148;2023-06-10T15:04:17;26.60;56.46
71304;DHT22;59091;47.446;19.148;2023-06-10T15:06:43;26.49;55.27
71304;DHT22;59091;47.446;19.148;2023-06-10T15:09:09;26.61;53.77
71304;DHT22;59091;47.446;19.148;2023-06-10T15:11:35;26.37;52.05
71304;DHT22;59091;47.446;19.148;2023-06-10T15:14:00;26.49;52.24
71304;DHT22;59091;47.446;19.148;2023-06-10T15:16:26;26.45;52.09
71304;DHT22;59091;47.446;19.148;2023-06-10T15:18:51;26.53;53.27
71304;DHT22;59091;47.446;19.148;2023-06-10T15:21:16;26.22;56.37
71304;DHT22;59091;47.446;19.148;2023-06-10T15:23:42;25.65;58.16